Time;durP1;ratioP1;P1;durP2;ratioP2;P2;SDS_P1;SDS_P2;PMS_P1;PMS_P2;Temp;Humidity;BMP_temperature;BMP_pressure;BME280_temperature;BME280_humidity;BME280_pressure;Samples;Min_cycle;Max_cycle;Signal;HPM_P1;HPM_P2
2021/03/27 00:01:54;;;;;;;14.85;4.03;;;7.10;83.70;;;;;;5002615;28;20410;-76
2021/03/27 00:04:42;;;;;;;12.10;2.80;;;7.10;83.50;;;;;;5014413;28;20493;-73
2021/03/27 00:07:22;;;;;;;10.27;3.53;;;7.10;83.70;;;;;;5004080;28;20021;-78
2021/03/27 00:10:04;;;;;;;11.90;3.28;;;7.10;83.50;;;;;;5005103;28;20365;-78
2021/03/27 00:12:37;;;;;;;16.55;3.47;;;7.10;83.60;;;;;;5002582;28;20042;-74
2021/03/27 00:15:24;;;;;;;16.17;4.00;;;7.00;83.70;;;;;;5007559;28;20034;-76
2021/03/27 00:18:02;;;;;;;13.05;3.40;;;6.90;83.80;;;;;;5007976;28;20098;-82
2021/03/27 00:20:37;;;;;;;15.00;3.25;;;7.00;83.90;;;;;;5001206;28;20126;-75
2021/03/27 00:23:10;;;;;;;15.40;3.47;;;6.90;84.00;;;;;;5001557;28;20025;-74
2021/03/27 00:25:44;;;;;;;15.98;3.17;;;6.90;84.30;;;;;;5005891;28;20116;-74
2021/03/27 00:28:23;;;;;;;12.57;3.60;;;6.80;84.40;;;;;;4994760;28;20121;-75
2021/03/27 00:30:56;;;;;;;22.55;3.50;;;6.80;84.20;;;;;;4999065;28;20034;-75
2021/03/27 00:33:26;;;;;;;17.15;3.42;;;6.70;84.40;;;;;;5001927;28;20049;-78
2021/03/27 00:35:57;;;;;;;12.85;3.20;;;6.80;84.40;;;;;;4998723;28;20096;-79
2021/03/27 00:38:29;;;;;;;17.27;3.80;;;6.80;84.40;;;;;;5004121;28;20030;-75
2021/03/27 00:40:56;;;;;;;25.45;4.35;;;6.80;84.50;;;;;;5001482;28;20113;-75
2021/03/27 00:43:34;;;;;;;16.00;3.63;;;6.80;84.30;;;;;;5002757;28;20390;-75
2021/03/27 00:46:04;;;;;;;18.13;3.70;;;6.80;84.20;;;;;;4999055;28;20036;-74
2021/03/27 00:48:55;;;;;;;17.38;3.78;;;6.70;84.00;;;;;;4996729;28;20358;-76
2021/03/27 00:51:29;;;;;;;19.40;3.83;;;6.70;84.00;;;;;;5005836;28;21514;-75
2021/03/27 00:54:21;;;;;;;14.05;3.53;;;6.70;83.70;;;;;;5004627;28;20350;-77
2021/03/27 00:57:14;;;;;;;14.65;3.42;;;6.80;83.70;;;;;;4994404;28;20042;-75
2021/03/27 00:59:59;;;;;;;17.83;3.85;;;6.60;83.80;;;;;;4999249;28;20028;-74
2021/03/27 01:02:27;;;;;;;15.30;4.13;;;6.60;83.90;;;;;;5002808;28;20117;-75
2021/03/27 01:04:55;;;;;;;23.08;4.38;;;6.60;83.80;;;;;;5008119;28;20041;-78
2021/03/27 01:07:24;;;;;;;20.00;3.53;;;6.70;83.60;;;;;;4998886;28;20187;-75
2021/03/27 01:09:56;;;;;;;17.52;3.78;;;6.70;83.70;;;;;;5003910;28;20053;-78
2021/03/27 01:12:33;;;;;;;18.63;3.42;;;6.60;83.60;;;;;;5003385;28;20037;-78
2021/03/27 01:15:07;;;;;;;28.90;5.43;;;6.70;83.60;;;;;;4999147;28;20073;-75
2021/03/27 01:17:35;;;;;;;12.88;3.97;;;6.70;83.70;;;;;;5004608;28;20481;-74
2021/03/27 01:20:13;;;;;;;16.48;3.58;;;6.70;83.80;;;;;;5004271;28;20049;-76
2021/03/27 01:22:40;;;;;;;15.68;3.70;;;6.80;83.80;;;;;;5003280;28;20107;-74
2021/03/27 01:25:07;;;;;;;14.55;3.25;;;6.80;83.60;;;;;;5010172;28;20046;-75
2021/03/27 01:27:55;;;;;;;19.00;4.78;;;6.90;83.50;;;;;;5000340;28;20022;-75
2021/03/27 01:30:35;;;;;;;22.10;3.25;;;7.00;83.30;;;;;;4995102;28;20077;-75
2021/03/27 01:33:06;;;;;;;16.25;3.72;;;6.90;83.10;;;;;;5003590;28;20085;-75
2021/03/27 01:35:41;;;;;;;14.30;3.45;;;6.90;82.70;;;;;;5003243;28;20049;-74
2021/03/27 01:38:15;;;;;;;;;;;7.00;82.70;;;;;;5014018;28;20046;-76
2021/03/27 01:41:18;;;;;;;15.50;3.60;;;7.00;82.50;;;;;;5005356;28;19914;-75
2021/03/27 01:43:44;;;;;;;17.95;3.22;;;7.00;82.30;;;;;;5000963;28;20056;-75
2021/03/27 01:46:31;;;;;;;16.60;3.80;;;7.00;82.30;;;;;;5014988;28;20034;-74
2021/03/27 01:49:19;;;;;;;18.05;3.72;;;7.00;81.90;;;;;;5019247;28;20030;-74
2021/03/27 01:51:56;;;;;;;15.93;3.45;;;7.00;81.70;;;;;;5001361;28;20042;-74
2021/03/27 01:54:27;;;;;;;14.23;3.08;;;7.10;81.50;;;;;;5001265;28;20038;-74
2021/03/27 01:57:23;;;;;;;12.23;3.15;;;7.10;81.20;;;;;;5019139;28;20034;-76
2021/03/27 02:00:10;;;;;;;14.98;3.35;;;7.10;80.60;;;;;;4999686;28;20034;-75
2021/03/27 02:02:47;;;;;;;13.93;3.03;;;7.10;80.30;;;;;;5003308;28;20030;-74
2021/03/27 02:05:26;;;;;;;19.90;3.83;;;7.10;80.40;;;;;;4996261;28;20528;-76
2021/03/27 02:08:05;;;;;;;20.33;3.83;;;7.10;79.90;;;;;;5001200;28;20034;-76
2021/03/27 02:10:31;;;;;;;15.10;3.05;;;7.10;79.90;;;;;;5000691;28;20138;-74
2021/03/27 02:13:15;;;;;;;14.73;3.42;;;7.00;79.80;;;;;;5007872;28;20084;-75
2021/03/27 02:16:04;;;;;;;15.27;3.17;;;7.00;79.60;;;;;;5001708;28;20038;-74
2021/03/27 02:18:44;;;;;;;14.60;3.85;;;7.00;79.50;;;;;;5017064;28;20080;-79
2021/03/27 02:21:13;;;;;;;18.63;4.35;;;6.90;79.30;;;;;;5004606;28;20477;-76
2021/03/27 02:24:03;;;;;;;14.57;3.58;;;6.80;79.40;;;;;;5005421;28;20065;-79
2021/03/27 02:26:54;;;;;;;14.82;3.78;;;6.80;79.40;;;;;;5005834;28;20099;-74
2021/03/27 02:29:29;;;;;;;15.45;3.10;;;6.80;79.60;;;;;;5005566;28;20046;-75
2021/03/27 02:32:16;;;;;;;14.38;4.07;;;6.70;79.90;;;;;;5008365;28;20030;-74
2021/03/27 02:34:50;;;;;;;22.42;3.83;;;6.70;79.50;;;;;;5004926;28;20074;-75
2021/03/27 02:37:42;;;;;;;21.80;3.90;;;6.70;79.40;;;;;;5023143;28;20025;-75
2021/03/27 02:40:18;;;;;;;17.95;3.85;;;6.70;79.50;;;;;;5006344;28;20469;-74
2021/03/27 02:42:55;;;;;;;24.88;4.55;;;6.60;79.50;;;;;;5002696;28;20226;-75
2021/03/27 02:45:34;;;;;;;16.48;4.15;;;6.70;79.50;;;;;;5014167;28;20037;-78
2021/03/27 02:48:05;;;;;;;19.08;4.65;;;6.70;79.50;;;;;;5002340;28;20029;-82
2021/03/27 02:50:47;;;;;;;15.93;5.00;;;6.60;79.70;;;;;;5006063;28;20018;-79
2021/03/27 02:53:22;;;;;;;18.10;4.05;;;6.60;79.80;;;;;;5001372;28;20601;-74
2021/03/27 02:56:26;;;;;;;20.98;3.85;;;6.60;80.00;;;;;;5008198;28;20029;-74
2021/03/27 02:59:25;;;;;;;17.10;4.22;;;6.60;80.20;;;;;;5004084;28;20708;-75
2021/03/27 03:02:18;;;;;;;20.83;4.00;;;6.60;80.20;;;;;;5006972;28;20143;-77
2021/03/27 03:05:09;;;;;;;20.77;3.78;;;6.60;80.10;;;;;;4999955;28;20061;-78
2021/03/27 03:08:02;;;;;;;18.70;4.10;;;6.60;79.90;;;;;;5003672;28;20034;-76
2021/03/27 03:10:39;;;;;;;25.55;4.85;;;6.70;79.40;;;;;;5013780;28;20030;-74
2021/03/27 03:13:26;;;;;;;17.45;3.65;;;6.70;79.50;;;;;;5005218;28;20037;-75
2021/03/27 03:15:58;;;;;;;18.70;4.63;;;6.80;79.40;;;;;;5006229;28;20050;-77
2021/03/27 03:18:44;;;;;;;19.40;4.05;;;6.80;79.40;;;;;;5003394;28;20034;-74
2021/03/27 03:21:25;;;;;;;18.98;4.03;;;6.80;79.30;;;;;;5003480;28;20100;-74
2021/03/27 03:23:57;;;;;;;21.73;3.95;;;6.90;79.40;;;;;;5004894;28;20061;-76
2021/03/27 03:26:42;;;;;;;22.27;3.90;;;6.90;79.20;;;;;;5001535;28;20068;-74
2021/03/27 03:29:12;;;;;;;15.57;3.53;;;6.90;79.00;;;;;;5001488;28;20084;-79
2021/03/27 03:32:04;;;;;;;21.35;4.22;;;7.00;78.80;;;;;;5006517;28;20033;-74
2021/03/27 03:34:32;;;;;;;23.02;4.28;;;7.00;78.60;;;;;;5006013;28;20034;-75
2021/03/27 03:37:16;;;;;;;25.13;4.82;;;7.10;78.30;;;;;;5008251;28;20485;-74
2021/03/27 03:40:06;;;;;;;17.45;3.85;;;7.00;78.30;;;;;;5004322;28;20046;-76
2021/03/27 03:42:48;;;;;;;18.75;4.00;;;7.10;78.10;;;;;;5008223;28;20045;-75
2021/03/27 03:45:46;;;;;;;20.58;3.75;;;7.10;78.20;;;;;;4996566;28;20458;-76
2021/03/27 03:48:41;;;;;;;16.27;3.53;;;7.10;78.70;;;;;;5000077;28;20663;-74
2021/03/27 03:51:27;;;;;;;18.73;4.47;;;7.10;78.60;;;;;;5001617;28;20062;-80
2021/03/27 03:54:12;;;;;;;19.17;4.03;;;7.10;79.10;;;;;;4998100;28;20433;-77
2021/03/27 03:56:47;;;;;;;15.20;3.20;;;7.10;79.20;;;;;;5001251;28;20485;-75
2021/03/27 03:59:31;;;;;;;12.52;3.05;;;7.10;78.90;;;;;;5001351;28;20087;-74
2021/03/27 04:02:12;;;;;;;16.02;3.25;;;7.10;78.80;;;;;;5005301;28;20072;-74
2021/03/27 04:04:47;;;;;;;15.55;2.95;;;6.90;79.70;;;;;;5003948;28;20103;-74
2021/03/27 04:07:19;;;;;;;14.45;3.25;;;6.70;80.60;;;;;;5004200;28;20041;-74
2021/03/27 04:09:58;;;;;;;15.70;2.97;;;6.40;80.70;;;;;;5010112;28;20408;-74
2021/03/27 04:12:30;;;;;;;13.20;2.83;;;6.40;81.10;;;;;;5001431;28;20065;-74
2021/03/27 04:15:01;;;;;;;10.10;2.72;;;6.40;81.40;;;;;;5002564;28;20056;-75
2021/03/27 04:17:42;;;;;;;14.55;2.83;;;6.30;81.50;;;;;;5002552;28;20429;-75
2021/03/27 04:20:23;;;;;;;13.98;3.00;;;6.30;81.90;;;;;;4998602;28;20064;-74
2021/03/27 04:23:17;;;;;;;12.52;3.10;;;6.40;82.20;;;;;;5007123;28;20026;-75
2021/03/27 04:25:54;;;;;;;12.43;3.03;;;6.30;82.30;;;;;;4995138;28;20118;-81
2021/03/27 04:28:40;;;;;;;13.30;2.95;;;6.20;82.10;;;;;;4999545;28;20039;-74
2021/03/27 04:31:29;;;;;;;14.68;3.55;;;6.20;82.60;;;;;;5001508;28;20040;-76
2021/03/27 04:34:27;;;;;;;12.82;3.40;;;6.20;82.60;;;;;;5005443;28;20064;-74
2021/03/27 04:37:23;;;;;;;15.30;3.30;;;6.10;82.10;;;;;;5001945;28;20095;-74
2021/03/27 04:40:08;;;;;;;9.27;2.70;;;6.10;81.20;;;;;;4995655;28;20061;-74
2021/03/27 04:42:51;;;;;;;15.38;2.95;;;6.10;80.90;;;;;;5001919;28;20057;-76
2021/03/27 04:45:43;;;;;;;12.43;2.95;;;6.10;80.90;;;;;;5005258;28;20041;-74
2021/03/27 04:48:09;;;;;;;11.88;2.70;;;5.90;80.80;;;;;;4999431;28;20037;-75
2021/03/27 04:51:00;;;;;;;15.25;4.40;;;5.90;81.10;;;;;;5009470;28;20030;-79
2021/03/27 04:53:37;;;;;;;11.20;3.38;;;5.90;81.10;;;;;;5001301;28;20108;-75
2021/03/27 04:56:15;;;;;;;11.85;3.20;;;5.80;81.40;;;;;;5004634;28;20484;-74
2021/03/27 04:58:49;;;;;;;13.52;2.95;;;5.70;81.40;;;;;;4999095;28;20057;-75
2021/03/27 05:01:41;;;;;;;13.13;3.78;;;5.60;81.50;;;;;;4999233;28;20042;-76
2021/03/27 05:04:14;;;;;;;16.00;2.60;;;5.60;81.80;;;;;;5003700;28;20477;-80
2021/03/27 05:06:43;;;;;;;15.35;2.97;;;5.60;81.80;;;;;;5007440;28;20100;-75
2021/03/27 05:09:29;;;;;;;14.57;3.33;;;5.50;81.50;;;;;;5005475;28;20025;-76
2021/03/27 05:12:25;;;;;;;13.32;2.85;;;5.50;81.40;;;;;;5004732;28;20080;-76
2021/03/27 05:14:54;;;;;;;13.75;3.67;;;5.40;81.10;;;;;;5002158;28;20126;-78
2021/03/27 05:17:22;;;;;;;17.60;3.30;;;5.40;81.10;;;;;;5004041;28;20088;-75
2021/03/27 05:20:24;;;;;;;14.15;3.25;;;5.30;81.00;;;;;;5002316;28;20057;-74
2021/03/27 05:23:18;;;;;;;14.98;3.03;;;5.30;81.30;;;;;;4998820;28;20116;-74
2021/03/27 05:26:21;;;;;;;15.05;3.35;;;5.20;81.30;;;;;;5004721;28;20496;-74
2021/03/27 05:29:04;;;;;;;14.02;2.72;;;5.20;81.20;;;;;;5001505;28;20034;-77
2021/03/27 05:31:47;;;;;;;13.40;3.25;;;5.30;81.10;;;;;;5002931;28;20054;-74
2021/03/27 05:34:33;;;;;;;15.38;3.15;;;5.30;81.10;;;;;;5001819;28;20060;-75
2021/03/27 05:37:17;;;;;;;13.35;3.75;;;5.30;81.20;;;;;;5001108;28;20113;-75
2021/03/27 05:39:54;;;;;;;18.20;4.32;;;5.30;81.20;;;;;;5001095;28;20026;-83
2021/03/27 05:43:12;;;;;;;14.93;4.00;;;5.30;81.10;;;;;;5001440;28;20215;-75
2021/03/27 05:46:13;;;;;;;17.10;4.35;;;5.30;81.10;;;;;;4999280;28;20050;-75
2021/03/27 05:48:51;;;;;;;16.60;4.13;;;5.30;80.80;;;;;;5001984;28;20368;-74
2021/03/27 05:51:35;;;;;;;17.80;4.45;;;5.40;80.30;;;;;;5000298;28;20049;-76
2021/03/27 05:54:13;;;;;;;15.15;3.97;;;5.50;80.20;;;;;;5000511;28;20041;-75
2021/03/27 05:57:06;;;;;;;17.35;3.67;;;5.60;79.40;;;;;;5001083;28;21573;-74
2021/03/27 05:59:58;;;;;;;16.38;3.20;;;5.70;78.90;;;;;;5000778;28;20076;-74
2021/03/27 06:02:39;;;;;;;16.27;3.67;;;5.80;78.80;;;;;;4999073;28;20109;-75
2021/03/27 06:05:23;;;;;;;20.63;4.40;;;5.90;79.00;;;;;;5002694;28;20046;-75
2021/03/27 06:08:03;;;;;;;19.42;4.35;;;5.80;78.90;;;;;;5007891;28;20045;-75
2021/03/27 06:10:32;;;;;;;18.00;4.35;;;5.80;79.00;;;;;;5003516;28;20080;-78
2021/03/27 06:13:22;;;;;;;18.13;3.92;;;5.80;79.30;;;;;;5003573;28;20524;-75
2021/03/27 06:16:09;;;;;;;19.95;3.90;;;5.80;79.50;;;;;;5006911;28;20041;-74
2021/03/27 06:19:06;;;;;;;16.17;4.13;;;5.80;79.50;;;;;;5006997;28;20037;-75
2021/03/27 06:21:37;;;;;;;17.58;3.90;;;5.80;79.50;;;;;;5005237;28;20041;-74
2021/03/27 06:24:21;;;;;;;14.85;4.10;;;5.80;79.40;;;;;;5005438;28;20461;-75
2021/03/27 06:26:53;;;;;;;14.45;4.32;;;5.90;79.40;;;;;;5004739;28;20494;-74
2021/03/27 06:29:21;;;;;;;19.67;4.65;;;5.90;79.60;;;;;;5003956;28;20454;-79
2021/03/27 06:32:02;;;;;;;22.63;4.55;;;6.00;79.30;;;;;;5020116;28;20363;-75
2021/03/27 06:34:43;;;;;;;15.60;3.70;;;6.10;79.20;;;;;;5005873;28;20057;-75
2021/03/27 06:37:29;;;;;;;16.95;3.95;;;6.20;79.20;;;;;;5007069;28;20380;-83
2021/03/27 06:40:17;;;;;;;18.58;3.58;;;6.20;79.20;;;;;;5005112;28;20121;-74
2021/03/27 06:43:17;;;;;;;19.02;4.53;;;6.40;79.00;;;;;;5007316;28;20030;-75
2021/03/27 06:46:01;;;;;;;19.70;4.63;;;6.50;79.00;;;;;;5007555;28;20089;-74
2021/03/27 06:48:45;;;;;;;21.13;7.18;;;7.00;77.70;;;;;;5002266;28;20046;-74
2021/03/27 06:51:46;;;;;;;15.50;3.70;;;7.30;76.70;;;;;;5018577;28;20385;-74
2021/03/27 06:54:42;;;;;;;25.27;5.20;;;7.30;75.80;;;;;;5005342;28;20034;-74
2021/03/27 06:57:07;;;;;;;19.27;4.05;;;7.10;76.40;;;;;;5005407;28;20026;-76
2021/03/27 07:00:10;;;;;;;19.55;4.43;;;7.00;77.00;;;;;;5002496;28;20026;-75
2021/03/27 07:03:13;;;;;;;22.50;5.28;;;7.00;76.80;;;;;;5008050;28;20060;-79
2021/03/27 07:06:04;;;;;;;17.98;4.10;;;7.00;77.00;;;;;;5009306;28;20050;-78
2021/03/27 07:08:30;;;;;;;14.65;4.10;;;7.00;76.50;;;;;;5018449;28;20034;-74
2021/03/27 07:11:23;;;;;;;21.27;4.25;;;7.00;76.40;;;;;;5004354;28;20808;-81
2021/03/27 07:14:25;;;;;;;18.67;4.15;;;7.10;75.80;;;;;;5006260;28;20034;-77
2021/03/27 07:16:54;;;;;;;17.60;4.10;;;7.10;76.00;;;;;;5006569;28;20044;-74
2021/03/27 07:19:54;;;;;;;18.98;4.40;;;7.10;75.80;;;;;;5004283;28;20477;-75
2021/03/27 07:22:29;;;;;;;20.00;4.38;;;7.10;74.90;;;;;;5001487;28;20084;-74
2021/03/27 07:25:13;;;;;;;15.48;3.92;;;7.20;74.70;;;;;;5002005;28;20054;-74
2021/03/27 07:27:58;;;;;;;15.50;3.75;;;7.30;74.10;;;;;;5009604;28;20045;-74
2021/03/27 07:30:36;;;;;;;18.10;4.63;;;7.30;73.90;;;;;;5005809;28;20046;-74
2021/03/27 07:33:44;;;;;;;16.13;3.50;;;7.40;74.30;;;;;;5004491;28;20022;-81
2021/03/27 07:36:41;;;;;;;12.27;3.53;;;7.40;73.40;;;;;;5006535;28;20038;-84
2021/03/27 07:39:33;;;;;;;20.50;4.50;;;7.50;73.30;;;;;;5002318;28;20042;-81
2021/03/27 07:42:46;;;;;;;16.77;3.53;;;7.60;72.70;;;;;;5001983;28;20077;-74
2021/03/27 07:45:45;;;;;;;23.40;4.43;;;7.70;72.60;;;;;;5002552;28;20125;-78
2021/03/27 07:48:36;;;;;;;18.75;3.70;;;7.90;71.70;;;;;;5002289;28;20401;-77
2021/03/27 07:51:25;;;;;;;18.13;4.35;;;8.00;71.10;;;;;;4999859;28;20105;-74
2021/03/27 07:54:28;;;;;;;19.38;3.88;;;8.10;70.60;;;;;;5005361;28;20040;-75
2021/03/27 07:57:17;;;;;;;16.38;3.45;;;8.20;69.50;;;;;;5003814;28;20038;-74
2021/03/27 07:59:58;;;;;;;21.02;4.20;;;8.20;69.60;;;;;;5006782;28;20466;-75
2021/03/27 08:03:00;;;;;;;13.15;3.17;;;8.20;69.20;;;;;;4997464;28;20036;-77
2021/03/27 08:05:47;;;;;;;14.15;3.80;;;8.10;69.30;;;;;;4994102;28;20042;-74
2021/03/27 08:08:34;;;;;;;15.90;3.35;;;8.30;67.80;;;;;;4978881;28;20030;-75
2021/03/27 08:11:19;;;;;;;13.40;3.78;;;8.50;67.20;;;;;;4981909;28;20081;-75
2021/03/27 08:13:48;;;;;;;18.08;4.03;;;8.30;66.50;;;;;;4993138;28;20134;-74
2021/03/27 08:16:50;;;;;;;14.27;3.80;;;8.00;66.10;;;;;;4977385;28;20046;-82
2021/03/27 08:19:48;;;;;;;15.70;3.38;;;8.20;66.70;;;;;;4983486;28;20120;-77
2021/03/27 08:22:21;;;;;;;15.93;3.47;;;8.30;67.00;;;;;;4982884;28;20053;-82
2021/03/27 08:25:05;;;;;;;17.27;3.83;;;8.50;66.60;;;;;;4979886;28;20050;-79
2021/03/27 08:27:48;;;;;;;14.45;3.83;;;8.80;66.40;;;;;;4989652;28;20053;-72
2021/03/27 08:30:39;;;;;;;17.77;4.80;;;8.80;65.40;;;;;;4971863;28;20038;-73
2021/03/27 08:33:20;;;;;;;10.40;2.90;;;9.00;64.30;;;;;;4975303;28;20094;-72
2021/03/27 08:36:02;;;;;;;15.93;3.63;;;9.10;63.80;;;;;;4976152;28;20045;-71
2021/03/27 08:39:05;;;;;;;11.98;2.95;;;9.00;64.40;;;;;;4975190;28;20049;-71
2021/03/27 08:41:50;;;;;;;11.52;3.00;;;8.80;64.70;;;;;;4976470;28;20072;-71
2021/03/27 08:44:37;;;;;;;18.15;3.20;;;8.60;64.90;;;;;;4975564;28;20043;-72
2021/03/27 08:47:38;;;;;;;15.90;3.40;;;8.60;63.80;;;;;;4977861;28;21696;-72
2021/03/27 08:50:16;;;;;;;11.55;2.80;;;8.60;63.60;;;;;;4976889;28;20059;-73
2021/03/27 08:53:12;;;;;;;10.27;3.33;;;8.60;63.60;;;;;;4978574;28;20422;-72
2021/03/27 08:55:48;;;;;;;12.10;3.25;;;8.70;63.20;;;;;;4975258;28;20109;-72
2021/03/27 08:58:57;;;;;;;9.32;2.80;;;8.80;64.40;;;;;;4975142;28;20180;-72
2021/03/27 09:02:04;;;;;;;12.63;2.80;;;8.60;60.20;;;;;;4971009;28;20117;-73
2021/03/27 09:04:42;;;;;;;16.15;3.17;;;8.80;61.50;;;;;;4958482;28;20442;-72
2021/03/27 09:07:35;;;;;;;16.50;4.15;;;9.10;61.10;;;;;;4974603;28;20065;-74
2021/03/27 09:10:30;;;;;;;17.25;3.22;;;9.40;62.40;;;;;;4973440;28;20433;-77
2021/03/27 09:13:16;;;;;;;11.32;2.67;;;9.70;61.40;;;;;;4972424;28;20096;-71
2021/03/27 09:15:56;;;;;;;12.20;3.13;;;10.10;57.70;;;;;;4971827;28;20055;-76
2021/03/27 09:18:45;;;;;;;14.85;2.95;;;10.20;58.90;;;;;;4969945;28;20374;-72
2021/03/27 09:21:26;;;;;;;12.15;3.40;;;10.40;57.60;;;;;;4969922;28;20063;-75
2021/03/27 09:24:29;;;;;;;9.43;2.83;;;9.70;55.80;;;;;;4968257;28;20050;-76
2021/03/27 09:27:29;;;;;;;11.82;2.80;;;9.30;56.20;;;;;;4975744;28;20096;-73
2021/03/27 09:30:18;;;;;;;13.38;2.70;;;8.90;56.00;;;;;;4993227;28;20117;-73
2021/03/27 09:32:55;;;;;;;10.77;3.78;;;8.80;57.10;;;;;;4999479;28;20099;-72
2021/03/27 09:35:40;;;;;;;10.32;2.88;;;9.20;57.80;;;;;;4992840;28;20367;-71
2021/03/27 09:38:16;;;;;;;10.55;2.83;;;9.50;58.80;;;;;;4995397;28;20366;-72
2021/03/27 09:40:44;;;;;;;11.05;3.35;;;9.70;55.30;;;;;;4994603;28;20034;-71
2021/03/27 09:44:06;;;;;;;10.98;2.85;;;10.10;53.70;;;;;;4995932;28;20042;-75
2021/03/27 09:46:44;;;;;;;14.30;3.33;;;10.20;53.70;;;;;;5004822;28;20070;-72
2021/03/27 09:49:28;;;;;;;11.82;2.60;;;10.10;53.30;;;;;;4993901;28;20729;-70
2021/03/27 09:52:22;;;;;;;12.82;2.72;;;10.10;53.00;;;;;;4996246;28;20041;-71
2021/03/27 09:54:49;;;;;;;8.75;2.03;;;10.00;52.10;;;;;;4995339;28;20137;-71
2021/03/27 09:57:45;;;;;;;9.73;2.60;;;9.40;51.80;;;;;;4996018;28;20041;-72
2021/03/27 10:00:38;;;;;;;11.50;2.70;;;9.30;52.60;;;;;;4996033;28;20579;-71
2021/03/27 10:03:31;;;;;;;12.35;2.40;;;9.50;52.40;;;;;;4996048;28;20448;-71
2021/03/27 10:06:08;;;;;;;13.60;3.13;;;9.90;52.70;;;;;;4999521;28;20078;-71
2021/03/27 10:08:42;;;;;;;9.93;2.72;;;10.10;53.70;;;;;;4997152;28;20068;-72
2021/03/27 10:11:13;;;;;;;11.63;3.08;;;10.00;53.50;;;;;;4996287;28;20064;-72
2021/03/27 10:13:55;;;;;;;11.75;2.60;;;10.10;53.10;;;;;;4998888;28;20085;-71
2021/03/27 10:16:59;;;;;;;10.73;2.33;;;10.00;51.70;;;;;;4994954;28;20062;-71
2021/03/27 10:19:25;;;;;;;9.60;1.98;;;10.00;51.80;;;;;;4976992;28;20493;-71
2021/03/27 10:22:32;;;;;;;8.40;2.38;;;10.50;50.30;;;;;;4970223;28;20043;-71
2021/03/27 10:25:07;;;;;;;10.00;2.47;;;10.80;49.70;;;;;;4942861;28;20154;-72
2021/03/27 10:27:52;;;;;;;9.00;2.20;;;11.10;47.60;;;;;;4997749;28;20038;-71
2021/03/27 10:30:45;;;;;;;7.53;2.10;;;10.80;47.10;;;;;;4992887;28;20342;-73
2021/03/27 10:33:41;;;;;;;8.45;2.13;;;10.90;46.90;;;;;;4997069;28;20041;-73
2021/03/27 10:36:12;;;;;;;;;;;10.90;46.70;;;;;;5000727;28;20030;-70
2021/03/27 10:38:53;;;;;;;9.70;2.10;;;10.90;46.50;;;;;;4999101;28;19921;-72
2021/03/27 10:41:37;;;;;;;9.98;2.00;;;10.50;46.90;;;;;;4993730;28;20026;-71
2021/03/27 10:44:26;;;;;;;8.27;2.10;;;10.30;47.80;;;;;;4990059;28;20064;-71
2021/03/27 10:47:16;;;;;;;7.70;2.33;;;10.40;47.00;;;;;;4995763;28;20038;-71
2021/03/27 10:50:08;;;;;;;7.85;2.17;;;10.60;46.10;;;;;;4995975;28;20476;-73
2021/03/27 10:53:09;;;;;;;6.50;2.20;;;10.40;44.60;;;;;;5016240;28;20120;-70
2021/03/27 10:55:58;;;;;;;9.68;2.10;;;10.60;44.10;;;;;;4990342;28;20045;-70
2021/03/27 10:58:36;;;;;;;12.20;3.20;;;11.00;45.70;;;;;;4996909;28;20037;-70
2021/03/27 11:01:36;;;;;;;9.63;2.03;;;11.20;45.10;;;;;;5000804;28;20030;-72
2021/03/27 11:04:05;;;;;;;10.90;2.40;;;11.10;44.60;;;;;;4998196;28;20537;-72
2021/03/27 11:06:49;;;;;;;9.25;2.70;;;11.30;45.20;;;;;;4994642;28;20041;-71
2021/03/27 11:09:33;;;;;;;10.13;1.98;;;11.40;45.70;;;;;;4994422;28;20022;-72
2021/03/27 11:12:17;;;;;;;9.00;1.83;;;11.30;44.10;;;;;;4992785;28;20060;-72
2021/03/27 11:14:58;;;;;;;9.00;2.25;;;11.60;44.30;;;;;;4995610;28;20485;-72
2021/03/27 11:17:41;;;;;;;4.85;1.90;;;11.80;44.50;;;;;;4998530;28;20038;-71
2021/03/27 11:20:32;;;;;;;10.73;2.92;;;12.00;43.80;;;;;;4998977;28;20397;-71
2021/03/27 11:23:23;;;;;;;11.85;2.63;;;11.50;44.00;;;;;;4996774;28;20370;-71
2021/03/27 11:26:28;;;;;;;10.90;2.42;;;11.00;45.40;;;;;;4994312;28;20053;-71
2021/03/27 11:29:32;;;;;;;9.30;1.88;;;10.80;45.90;;;;;;4998453;28;20046;-71
2021/03/27 11:32:22;;;;;;;7.38;2.35;;;10.60;44.90;;;;;;4994451;28;20065;-71
2021/03/27 11:35:11;;;;;;;11.95;3.00;;;10.40;46.60;;;;;;4995344;28;20077;-72
2021/03/27 11:37:39;;;;;;;8.95;2.47;;;10.80;46.00;;;;;;4998828;28;20038;-70
2021/03/27 11:40:28;;;;;;;7.97;2.10;;;10.60;45.80;;;;;;5000032;28;20038;-71
2021/03/27 11:43:02;;;;;;;9.05;2.55;;;11.10;45.30;;;;;;5002017;28;20042;-71
2021/03/27 11:45:58;;;;;;;8.18;2.70;;;11.60;45.20;;;;;;4999758;28;20045;-75
2021/03/27 11:48:34;;;;;;;10.18;2.35;;;11.80;43.70;;;;;;4990345;28;20113;-73
2021/03/27 11:51:12;;;;;;;9.60;3.15;;;12.20;40.80;;;;;;4998273;28;20500;-71
2021/03/27 11:53:40;;;;;;;11.15;3.05;;;12.10;40.50;;;;;;5010180;28;20046;-71
2021/03/27 11:56:36;;;;;;;12.30;3.13;;;12.10;42.10;;;;;;5006714;28;20046;-72
2021/03/27 12:02:18;;;;;;;12.32;2.92;;;12.30;43.70;;;;;;4999145;28;20052;-70
2021/03/27 12:05:14;;;;;;;10.77;2.88;;;12.00;45.60;;;;;;4998485;28;20170;-71
2021/03/27 12:07:59;;;;;;;12.32;2.92;;;12.30;45.70;;;;;;4999318;28;20018;-70
2021/03/27 12:10:30;;;;;;;7.95;1.85;;;12.60;46.80;;;;;;4998147;28;20026;-70
2021/03/27 12:13:23;;;;;;;7.20;1.77;;;12.30;40.40;;;;;;4996865;28;20038;-71
2021/03/27 12:16:21;;;;;;;9.75;2.17;;;12.40;40.50;;;;;;4998826;28;20124;-72
2021/03/27 12:19:08;;;;;;;9.00;2.15;;;12.20;40.40;;;;;;4982695;28;20038;-71
2021/03/27 12:21:56;;;;;;;5.45;2.10;;;12.30;42.10;;;;;;4998906;28;20132;-71
2021/03/27 12:24:29;;;;;;;10.20;2.95;;;12.90;41.40;;;;;;4997578;28;20053;-71
2021/03/27 12:27:04;;;;;;;11.82;3.10;;;12.90;41.70;;;;;;4999581;28;20038;-72
2021/03/27 12:29:47;;;;;;;10.43;2.83;;;12.60;42.90;;;;;;5011505;28;20058;-71
2021/03/27 12:32:41;;;;;;;10.77;3.00;;;12.60;42.90;;;;;;4994560;28;20034;-71
2021/03/27 12:35:19;;;;;;;7.75;2.33;;;13.10;42.50;;;;;;4996121;28;20341;-70
2021/03/27 12:38:04;;;;;;;10.05;2.55;;;13.40;41.60;;;;;;5002960;28;20116;-70
2021/03/27 12:40:54;;;;;;;9.07;2.28;;;13.40;42.30;;;;;;5001575;28;20030;-70
2021/03/27 12:43:22;;;;;;;9.23;2.95;;;13.00;41.80;;;;;;4999038;28;20056;-71
2021/03/27 12:45:50;;;;;;;8.63;2.03;;;12.60;41.30;;;;;;4992995;28;20049;-70
2021/03/27 12:48:28;;;;;;;8.23;2.40;;;12.20;41.00;;;;;;5000952;28;20065;-73
2021/03/27 12:51:33;;;;;;;10.23;2.70;;;11.70;41.50;;;;;;4995939;28;20109;-72
2021/03/27 12:54:24;;;;;;;11.25;2.70;;;12.00;42.20;;;;;;5000269;28;20026;-72
2021/03/27 12:57:08;;;;;;;13.98;2.33;;;12.60;42.50;;;;;;5001360;28;20033;-71
2021/03/27 12:59:42;;;;;;;11.25;2.50;;;12.80;42.80;;;;;;4992796;28;20363;-71
2021/03/27 13:02:26;;;;;;;12.00;3.03;;;12.80;43.60;;;;;;4992466;28;20166;-72
2021/03/27 13:06:37;;;;;;;8.75;2.42;;;12.20;43.70;;;;;;5077903;27;20372;-73
2021/03/27 13:09:11;;;;;;;11.68;2.60;;;11.90;44.60;;;;;;5045184;28;20034;-71
2021/03/27 13:11:48;;;;;;;7.80;1.60;;;12.10;43.60;;;;;;5048113;28;20106;-71
2021/03/27 13:15:09;;;;;;;9.45;1.95;;;12.50;42.30;;;;;;5027672;28;20541;-71
2021/03/27 13:17:34;;;;;;;11.98;2.42;;;12.20;42.60;;;;;;5017263;28;20025;-72
2021/03/27 13:20:31;;;;;;;10.02;2.50;;;11.70;44.20;;;;;;5040885;28;20029;-71
2021/03/27 13:23:06;;;;;;;9.25;2.30;;;11.70;44.40;;;;;;5041917;28;20036;-71
2021/03/27 13:25:57;;;;;;;8.82;2.30;;;12.10;42.20;;;;;;5042933;28;20494;-71
2021/03/27 13:28:36;;;;;;;11.57;2.15;;;12.60;41.50;;;;;;5036432;28;20040;-71
2021/03/27 13:31:13;;;;;;;9.00;2.20;;;12.10;41.30;;;;;;5040962;28;20116;-71
2021/03/27 13:34:05;;;;;;;10.23;2.17;;;12.10;42.60;;;;;;5036277;28;20414;-71
2021/03/27 13:36:55;;;;;;;11.27;2.28;;;11.70;42.10;;;;;;5033037;28;20158;-71
2021/03/27 13:39:31;;;;;;;11.63;2.40;;;12.10;43.30;;;;;;5033425;28;20036;-70
2021/03/27 13:42:10;;;;;;;9.35;2.75;;;12.40;43.20;;;;;;5037367;28;20079;-72
2021/03/27 13:44:48;;;;;;;9.13;2.95;;;12.60;42.80;;;;;;5042278;28;20446;-73
2021/03/27 13:47:51;;;;;;;12.27;2.40;;;12.80;42.00;;;;;;5037066;28;20030;-73
2021/03/27 13:50:20;;;;;;;9.00;2.78;;;13.10;41.20;;;;;;5037949;28;20776;-71
2021/03/27 13:53:00;;;;;;;7.80;2.30;;;13.60;40.50;;;;;;5040512;28;20033;-71
2021/03/27 13:55:59;;;;;;;11.25;2.63;;;12.90;40.10;;;;;;5043322;28;20567;-73
2021/03/27 13:58:39;;;;;;;10.88;2.83;;;12.60;41.90;;;;;;5033039;28;20029;-73
2021/03/27 14:01:17;;;;;;;11.30;2.88;;;12.70;42.70;;;;;;5040042;28;20041;-71
2021/03/27 14:04:04;;;;;;;10.07;2.40;;;12.20;41.60;;;;;;5043108;28;20087;-72
2021/03/27 14:06:34;;;;;;;8.57;2.10;;;11.90;43.30;;;;;;5040787;28;20345;-72
2021/03/27 14:09:07;;;;;;;7.93;2.63;;;11.90;43.60;;;;;;5041558;28;20024;-73
2021/03/27 14:11:45;;;;;;;9.65;2.45;;;12.10;42.80;;;;;;5030672;28;20037;-71
2021/03/27 14:14:22;;;;;;;8.85;2.33;;;12.00;42.40;;;;;;5037380;28;20050;-72
2021/03/27 14:16:58;;;;;;;8.50;2.38;;;12.10;42.60;;;;;;5025784;28;20472;-71